East Farmingdale, New York
Current Conditions -  °F | °C
As of 5:38 AM on Thursday 23 Oct 2014 (Local Time) from KFRG Reporting Station
Light Rain Light Rain  
Wind Chill: 52°   Ceiling: 3600
Heat Index: 52°   Visibility: 8mi
Dew Point: 47°   Wind: 18mph
Humidity: 83%   Direction: 10°N
Pressure: 29.67"   Gusts: NA
Location:  40.7334°N, 73.4289°W
Report Text: KFRG 230938Z AUTO 01016KT 8SM -RA SCT022 BKN036 OVC070 11/08 A2967 RMK AO2 PK WND 03026/0908 RAB13 P0002 T01110083
Loading
Personal Weather Stations






























Interactive Weather Map
Tropical Storm Tracking
New forecast layout! Learn more

10-Day Weather Forecast

Advertisements
Track Severe Weather on mobile